createdAt,value
2022-11-26T00:00:00.202Z,1005.93
2022-11-26T00:05:00.140Z,1005.98
2022-11-26T00:10:00.198Z,1006.04
2022-11-26T00:15:00.216Z,1005.98
2022-11-26T00:20:00.426Z,1006.05
2022-11-26T00:25:00.177Z,1006.04
2022-11-26T00:30:00.136Z,1006.03
2022-11-26T00:35:00.197Z,1006.12
2022-11-26T00:40:00.175Z,1006.19
2022-11-26T00:45:00.145Z,1006.15
2022-11-26T00:50:00.145Z,1006.18
2022-11-26T00:55:00.199Z,1006.33
2022-11-26T01:00:00.256Z,1006.33
2022-11-26T01:05:00.366Z,1006.37
2022-11-26T01:10:00.241Z,1006.41
2022-11-26T01:15:00.311Z,1006.46
2022-11-26T01:20:00.301Z,1006.47
2022-11-26T01:25:00.233Z,1006.55
2022-11-26T01:30:02.365Z,1006.59
2022-11-26T01:35:00.304Z,1006.59
2022-11-26T01:40:00.321Z,1006.69
2022-11-26T01:45:01.409Z,1006.73
2022-11-26T01:50:00.307Z,1006.76
2022-11-26T01:55:00.218Z,1006.78
2022-11-26T02:00:02.211Z,1006.8
2022-11-26T02:05:00.266Z,1006.87
2022-11-26T02:10:00.210Z,1007
2022-11-26T02:15:00.309Z,1006.92
2022-11-26T02:20:00.343Z,1007.04
2022-11-26T02:25:00.271Z,1007.01
2022-11-26T02:30:00.298Z,1007.17
2022-11-26T02:35:00.214Z,1007.25
2022-11-26T02:40:00.211Z,1007.25
2022-11-26T02:45:00.228Z,1007.22
2022-11-26T02:50:00.195Z,1007.37
2022-11-26T02:55:00.212Z,1007.42
2022-11-26T03:00:00.212Z,1007.47
2022-11-26T03:05:00.165Z,1007.51
2022-11-26T03:10:00.213Z,1007.51
2022-11-26T03:15:00.183Z,1007.6
2022-11-26T03:20:00.216Z,1007.68
2022-11-26T03:25:00.178Z,1007.82
2022-11-26T03:30:00.223Z,1007.82
2022-11-26T03:35:00.188Z,1007.91
2022-11-26T03:40:00.187Z,1008.04
2022-11-26T03:45:00.192Z,1007.97
2022-11-26T03:50:00.142Z,1008.03
2022-11-26T03:55:00.186Z,1008.05
2022-11-26T04:00:00.205Z,1008.03
2022-11-26T04:05:00.173Z,1008.08
2022-11-26T04:10:00.162Z,1008.18
2022-11-26T04:15:00.235Z,1008.17
2022-11-26T04:20:00.250Z,1008.33
2022-11-26T04:25:00.138Z,1007.96
2022-11-26T04:30:00.166Z,1007.94
2022-11-26T04:35:00.209Z,1007.95
2022-11-26T04:40:00.181Z,1008.02
2022-11-26T04:45:00.201Z,1008.15
2022-11-26T04:50:00.219Z,1008.29
2022-11-26T04:55:00.195Z,1008.37
2022-11-26T05:00:00.186Z,1008.46
2022-11-26T05:05:00.203Z,1008.54
2022-11-26T05:10:00.186Z,1008.61
2022-11-26T05:15:00.200Z,1008.68
2022-11-26T05:20:00.156Z,1008.66
2022-11-26T05:25:00.180Z,1008.78
2022-11-26T05:30:00.154Z,1008.75
2022-11-26T05:35:00.560Z,1008.88
2022-11-26T05:40:00.165Z,1008.94
2022-11-26T05:45:00.141Z,1008.93
2022-11-26T05:50:00.141Z,1009.08
2022-11-26T05:55:00.174Z,1009.08
2022-11-26T06:00:00.207Z,1009.25
2022-11-26T06:05:00.170Z,1009.25
2022-11-26T06:10:00.172Z,1009.3
2022-11-26T06:15:00.195Z,1009.33
2022-11-26T06:20:00.191Z,1009.35
2022-11-26T06:25:00.178Z,1009.43
2022-11-26T06:30:00.161Z,1009.55
2022-11-26T06:35:00.224Z,1009.51
2022-11-26T06:40:00.155Z,1009.69
2022-11-26T06:45:00.367Z,1009.73
2022-11-26T06:50:00.160Z,1009.74
2022-11-26T06:55:00.175Z,1009.78
2022-11-26T07:00:00.204Z,1009.84
2022-11-26T07:05:00.136Z,1009.96
2022-11-26T07:10:00.144Z,1010.01
2022-11-26T07:15:00.179Z,1010.03
2022-11-26T07:20:00.148Z,1010.12
2022-11-26T07:25:00.182Z,1010.14
2022-11-26T07:30:00.189Z,1010.08
2022-11-26T07:35:00.173Z,1010.18
2022-11-26T07:40:00.371Z,1010.18
2022-11-26T07:45:00.151Z,1010.32
2022-11-26T07:50:00.149Z,1010.26
2022-11-26T07:55:00.326Z,1010.29
2022-11-26T08:00:00.328Z,1010.32
2022-11-26T08:05:00.293Z,1010.36
2022-11-26T08:10:00.341Z,1010.52
2022-11-26T08:15:00.360Z,1010.54
2022-11-26T08:20:00.165Z,1010.56
2022-11-26T08:25:00.152Z,1010.54
2022-11-26T08:30:00.220Z,1010.54
2022-11-26T08:35:00.170Z,1010.6
2022-11-26T08:40:00.173Z,1010.58
2022-11-26T08:45:00.206Z,1010.77
2022-11-26T08:50:00.143Z,1010.81
2022-11-26T08:55:00.184Z,1010.74
2022-11-26T09:00:00.182Z,1010.88
2022-11-26T09:05:00.168Z,1010.91
2022-11-26T09:10:00.154Z,1010.95
2022-11-26T09:15:00.392Z,1011.04
2022-11-26T09:20:00.154Z,1011.08
2022-11-26T09:25:00.142Z,1011.17
2022-11-26T09:30:00.199Z,1011.21
2022-11-26T09:35:00.176Z,1011.18
2022-11-26T09:40:00.185Z,1011.22
2022-11-26T09:45:00.167Z,1011.25
2022-11-26T09:50:00.167Z,1011.37
2022-11-26T09:55:00.172Z,1011.39
2022-11-26T10:00:00.317Z,1011.47
2022-11-26T10:05:00.128Z,1011.41
2022-11-26T10:10:00.164Z,1011.44
2022-11-26T10:15:00.191Z,1011.47
2022-11-26T10:20:00.144Z,1011.43
2022-11-26T10:25:00.137Z,1011.44
2022-11-26T10:30:00.149Z,1011.46
2022-11-26T10:35:00.199Z,1011.5
2022-11-26T10:40:04.467Z,1011.53
2022-11-26T10:45:00.225Z,1011.56
2022-11-26T10:50:00.185Z,1011.57
2022-11-26T10:55:00.181Z,1011.54
2022-11-26T11:00:00.155Z,1011.57
2022-11-26T11:05:00.395Z,1011.46
2022-11-26T11:10:00.172Z,1011.43
2022-11-26T11:15:00.346Z,1011.46
2022-11-26T11:20:00.130Z,1011.51
2022-11-26T11:25:00.288Z,1011.57
2022-11-26T11:30:00.147Z,1011.61
2022-11-26T11:35:00.298Z,1011.64
2022-11-26T11:40:00.154Z,1011.66
2022-11-26T11:45:00.135Z,1011.62
2022-11-26T11:50:00.155Z,1011.64
2022-11-26T11:55:00.246Z,1011.64
2022-11-26T12:00:00.187Z,1011.53
2022-11-26T12:05:00.226Z,1011.63
2022-11-26T12:10:00.151Z,1011.72
2022-11-26T12:15:00.170Z,1011.58
2022-11-26T12:20:00.189Z,1011.53
2022-11-26T12:25:00.174Z,1011.49
2022-11-26T12:30:00.149Z,1011.64
2022-11-26T12:35:00.172Z,1011.68
2022-11-26T12:40:00.158Z,1011.65
2022-11-26T12:45:00.277Z,1011.71
2022-11-26T12:50:00.269Z,1011.59
2022-11-26T12:55:02.185Z,1011.7
2022-11-26T13:00:00.179Z,1011.63
2022-11-26T13:05:00.222Z,1011.61
2022-11-26T13:10:00.157Z,1011.65
2022-11-26T13:15:00.174Z,1011.72
2022-11-26T13:20:00.145Z,1011.67
2022-11-26T13:25:00.128Z,1011.63
2022-11-26T13:30:00.287Z,1011.53
2022-11-26T13:35:00.152Z,1011.61
2022-11-26T14:15:00.235Z,1011.83
2022-11-26T14:20:00.122Z,1011.74
2022-11-26T14:25:00.151Z,1011.82
2022-11-26T14:30:00.155Z,1011.82
2022-11-26T14:35:00.156Z,1011.85
2022-11-26T14:40:00.154Z,1011.9
2022-11-26T14:45:00.224Z,1011.88
2022-11-26T14:50:00.141Z,1011.91
2022-11-26T15:25:02.404Z,1011.81
2022-11-26T15:30:00.252Z,1011.78
2022-11-26T15:35:00.186Z,1011.81
2022-11-26T15:40:00.151Z,1011.92
2022-11-26T15:45:00.292Z,1011.95
2022-11-26T15:50:00.151Z,1011.9
2022-11-26T15:55:16.436Z,1011.97
2022-11-26T16:00:00.175Z,1012.05
2022-11-26T16:05:00.179Z,1012.11
2022-11-26T16:10:00.160Z,1012.06
2022-11-26T16:15:00.135Z,1012.11
2022-11-26T16:20:00.177Z,1012.13
2022-11-26T16:25:00.202Z,1012.19
2022-11-26T16:30:00.189Z,1012.24
2022-11-26T16:35:08.393Z,1012.23
2022-11-26T16:40:00.206Z,1012.29
2022-11-26T16:45:04.065Z,1012.3
2022-11-26T16:50:00.152Z,1012.3
2022-11-26T16:55:00.305Z,1012.34
2022-11-26T17:00:00.163Z,1012.34
2022-11-26T17:05:00.173Z,1012.3
2022-11-26T17:10:00.149Z,1012.39
2022-11-26T17:15:00.274Z,1012.47
2022-11-26T17:20:00.223Z,1012.55
2022-11-26T17:25:00.145Z,1012.47
2022-11-26T17:30:00.160Z,1012.49
2022-11-26T17:35:00.144Z,1012.54
2022-11-26T17:40:00.165Z,1012.59
2022-11-26T17:45:00.181Z,1012.54
2022-11-26T17:50:00.182Z,1012.55
2022-11-26T17:55:00.138Z,1012.61
2022-11-26T18:00:00.353Z,1012.55
2022-11-26T18:05:00.162Z,1012.6
2022-11-26T18:10:00.175Z,1012.64
2022-11-26T18:15:00.146Z,1012.53
2022-11-26T18:20:00.187Z,1012.58
2022-11-26T18:25:00.251Z,1012.61
2022-11-26T18:30:00.251Z,1012.65
2022-11-26T18:35:00.175Z,1012.55
2022-11-26T18:40:00.146Z,1012.58
2022-11-26T18:45:00.184Z,1012.57
2022-11-26T18:50:00.132Z,1012.57
2022-11-26T18:55:00.301Z,1012.53
2022-11-26T19:00:00.157Z,1012.57
2022-11-26T19:05:00.163Z,1012.49
2022-11-26T19:10:00.168Z,1012.56
2022-11-26T19:15:00.159Z,1012.51
2022-11-26T19:20:00.228Z,1012.6
2022-11-26T19:25:00.185Z,1012.45
2022-11-26T19:30:00.201Z,1012.52
2022-11-26T19:35:04.251Z,1012.52
2022-11-26T19:40:00.140Z,1012.53
2022-11-26T19:45:00.208Z,1012.55
2022-11-26T19:50:00.132Z,1012.47
2022-11-26T19:55:00.140Z,1012.39
2022-11-26T20:00:00.203Z,1012.52
2022-11-26T20:05:00.154Z,1012.5
2022-11-26T20:10:00.175Z,1012.6
2022-11-26T20:15:00.155Z,1012.66
2022-11-26T20:20:00.137Z,1012.71
2022-11-26T20:25:00.169Z,1012.62
2022-11-26T20:30:00.139Z,1012.64
2022-11-26T20:35:00.150Z,1012.6
2022-11-26T20:40:00.305Z,1012.53
2022-11-26T20:45:00.193Z,1012.5
2022-11-26T20:50:00.141Z,1012.49
2022-11-26T20:55:00.126Z,1012.56
2022-11-26T21:00:00.251Z,1012.5
2022-11-26T21:05:00.259Z,1012.45
2022-11-26T21:10:00.246Z,1012.49
2022-11-26T21:15:00.262Z,1012.54
2022-11-26T21:20:00.168Z,1012.59
2022-11-26T21:25:00.204Z,1013.08
2022-11-26T21:30:00.239Z,1013.06
2022-11-26T21:35:00.136Z,1013.05
2022-11-26T21:40:00.234Z,1013.06
2022-11-26T21:45:00.161Z,1013.05
2022-11-26T21:50:00.196Z,1012.94
2022-11-26T21:55:03.528Z,1012.95
2022-11-26T22:00:00.229Z,1012.97
2022-11-26T22:05:00.192Z,1013
2022-11-26T22:10:00.189Z,1013.04
2022-11-26T22:15:00.134Z,1012.98
2022-11-26T22:20:00.141Z,1013.1
2022-11-26T22:25:00.216Z,1013.06
2022-11-26T22:30:00.136Z,1013.16
2022-11-26T22:35:00.265Z,1013.12
2022-11-26T22:40:00.376Z,1013.12
2022-11-26T22:45:00.164Z,1013.29
2022-11-26T22:50:00.126Z,1013.19
2022-11-26T22:55:00.151Z,1013.16
2022-11-26T23:00:00.218Z,1013.06
2022-11-26T23:05:00.175Z,1013.19
2022-11-26T23:10:00.157Z,1013.15
2022-11-26T23:15:00.128Z,1013.11
2022-11-26T23:20:00.169Z,1012.98
2022-11-26T23:25:00.183Z,1013.06
2022-11-26T23:30:00.465Z,1012.99
2022-11-26T23:35:00.144Z,1013.02
2022-11-26T23:40:00.228Z,1012.9
2022-11-26T23:45:00.167Z,1012.94
2022-11-26T23:50:01.050Z,1013
2022-11-26T23:55:00.135Z,1012.91
